createdAt,value
2023-08-14T00:54:49.538Z,8.33
2023-08-14T00:59:08.926Z,8.17
2023-08-14T01:30:13.889Z,8.10
2023-08-14T01:55:02.167Z,8.77
2023-08-14T02:15:47.220Z,11.47
2023-08-14T02:36:13.941Z,10.43
2023-08-14T03:01:18.368Z,12.90
2023-08-14T03:26:23.285Z,14.37
2023-08-14T04:27:05.487Z,16.23
2023-08-14T04:48:00.561Z,15.97
2023-08-14T05:12:52.327Z,13.83
2023-08-14T05:33:33.099Z,13.57
2023-08-14T06:14:12.340Z,11.02
2023-08-14T06:38:57.494Z,10.20
2023-08-14T07:04:43.317Z,9.02
2023-08-14T07:25:10.775Z,9.50
2023-08-14T08:00:29.783Z,6.00
2023-08-14T08:25:57.631Z,4.30
2023-08-14T08:46:19.256Z,4.60
2023-08-14T09:16:39.130Z,6.63
2023-08-14T09:36:55.278Z,6.47
2023-08-14T10:02:01.053Z,7.03
2023-08-14T10:32:58.694Z,7.80
2023-08-14T10:57:34.837Z,12.57
2023-08-14T11:23:23.315Z,6.15
2023-08-14T11:43:19.212Z,5.85
2023-08-14T12:08:58.768Z,5.00
2023-08-14T12:39:03.577Z,5.22
2023-08-14T13:00:01.506Z,3.88
2023-08-14T13:04:21.575Z,4.15
2023-08-14T13:35:24.112Z,4.32
2023-08-14T14:00:47.361Z,6.10
2023-08-14T14:40:44.599Z,5.05
2023-08-14T15:01:44.535Z,3.83
2023-08-14T15:21:58.497Z,6.30
2023-08-14T15:46:47.240Z,5.30
2023-08-14T16:02:32.987Z,5.30
2023-08-14T16:32:26.123Z,6.25
2023-08-14T16:58:01.474Z,7.00
2023-08-14T17:18:33.136Z,6.32
2023-08-14T17:38:40.593Z,7.40
2023-08-14T18:04:16.654Z,8.82
2023-08-14T18:28:56.750Z,8.40
2023-08-14T18:54:23.340Z,10.43
2023-08-14T19:20:13.019Z,13.05
2023-08-14T19:50:33.813Z,16.20
2023-08-14T20:16:03.363Z,17.05
2023-08-14T20:51:25.131Z,17.65
2023-08-14T21:16:20.335Z,19.05
2023-08-14T21:41:45.826Z,21.13
2023-08-14T22:02:18.630Z,20.13
2023-08-14T22:22:29.584Z,20.08
2023-08-14T22:43:06.738Z,23.35
2023-08-14T23:08:12.597Z,23.63
2023-08-14T23:38:33.348Z,24.33
2023-08-14T23:54:10.966Z,24.60
